Airfield :
LOGIN :

Register | Disclaimer

   EN    FR    IT 

 










Legend :    VFR   Marginal VFR   IFR   Intensive IFR   Very Intensive IFR
Visi :
Ceiling :
>= 8 km
>= 3000ft
5 to 8 km
1000 to 3000 ft
1500m to 5 km
500 to 1000 ft
800 to 1500m
200 to 500 ft
< 800m
< 200 ft
Symbols :   Thunderstorms  Fog  Heavy snow  Heavy precipitations  Wind > 20 kt
SIGMETs :     Misc.  Thunderstorms  Icing  Turbulence  Mountain Waves  Volcanic Ashes






- Airport Elevation : 1260 ft
- IATA code : LDE


LFBT - Tarbes / Ossun

CURRENT METAR :
  • 221030Z AUTO 29004KT 190V350 9999 BKN032 20/14 Q1015 TEMPO 4000 SHRA BKN030TCU

EXPIRED METARs :
  • 221000Z AUTO 28006KT 220V350 9999 BKN031 BKN039 20/12 Q1015 TEMPO 4000 SHRA BKN030TCU
  • 220930Z AUTO 31006KT 240V340 9999 BKN028 BKN033 18/12 Q1015 TEMPO 4000 SHRA BKN030TCU
  • 220900Z AUTO 29008KT 260V320 9999 SCT029 BKN040 18/13 Q1015 TEMPO 4000 SHRA BKN030TCU
  • 220830Z AUTO 28008KT 220V310 CAVOK 18/12 Q1015 TEMPO 4000 SHRA BKN030TCU
  • 220800Z AUTO 30006KT 250V020 CAVOK 18/11 Q1015 NOSIG
  • 220730Z AUTO 27008KT 220V320 9999 FEW024 17/12 Q1015 NOSIG

TAF TAF LFBT
Valid from the 22 at 06:00 until the 23 at 06:00 UTC


220500Z 2206/2306 VRB04KT 9999 BKN035
TEMPO 2210/2221 4000 SHRA BKN030TCU
PROB40
TEMPO 2213/2218 VRB15G30KT 3000 TSRA BKN020CB
BECMG 2221/2223 BKN020



MET'MAP, your aeronautical weather chart ! - Copyright ORBIFLY December 2007 - Disclaimer

ORBIFLY MET'MAP TEAM :

Programming & Development : Alexandra Zaïnal
Concept & original design : Baudouin d'Aumeries
Assistance for programming : Marc-Olivier Méhu
Technical & hardware support : Manuel Goepfert

Contact : metmap@orbifly.com




SOURCES & CREDITS :

   NOAA